createdAt,value
2023-04-18T03:55:54.421Z,100189.31
2023-04-18T03:58:58.712Z,100198.06
2023-04-18T04:02:01.205Z,100192.78
2023-04-18T04:05:04.870Z,100197.16
2023-04-18T04:08:07.046Z,100193.72
2023-04-18T04:11:09.714Z,100203.28
2023-04-18T04:14:12.338Z,100201.59
2023-04-18T04:17:15.501Z,100207.59
2023-04-18T04:20:23.902Z,100212.84
2023-04-18T04:23:27.578Z,100208.41
2023-04-18T04:26:30.723Z,100213.75
2023-04-18T04:29:33.612Z,100213.72
2023-04-18T04:32:35.816Z,100218.16
2023-04-18T04:35:38.323Z,100212.06
2023-04-18T04:38:44.301Z,100224.31
2023-04-18T04:41:47.185Z,100221.59
2023-04-18T04:44:50.100Z,100230.37
2023-04-18T04:47:52.734Z,100229.50
2023-04-18T04:50:57.643Z,100233.03
2023-04-18T04:54:00.545Z,100240.00
2023-04-18T04:57:03.254Z,100238.22
2023-04-18T05:00:07.286Z,100235.66
2023-04-18T05:03:10.669Z,100239.12
2023-04-18T05:06:14.089Z,100233.03
2023-04-18T05:09:16.297Z,100237.44
2023-04-18T05:12:18.769Z,100237.41
2023-04-18T05:15:21.007Z,100238.25
2023-04-18T05:18:23.447Z,100234.81
2023-04-18T05:21:26.429Z,100244.34
2023-04-18T05:24:28.932Z,100251.38
2023-04-18T05:27:31.074Z,100242.53
2023-04-18T05:30:33.465Z,100256.53
2023-04-18T05:33:35.607Z,100258.28
2023-04-18T05:36:38.097Z,100252.22
2023-04-18T05:39:41.834Z,100254.03
2023-04-18T05:42:44.356Z,100255.84
2023-04-18T05:45:46.567Z,100259.34
2023-04-18T05:48:49.068Z,100243.72
2023-04-18T05:51:52.879Z,100250.72
2023-04-18T05:54:55.460Z,100245.50
2023-04-18T05:57:57.615Z,100262.19
2023-04-18T06:01:00.000Z,100255.13
2023-04-18T06:04:02.486Z,100256.94
2023-04-18T06:07:04.819Z,100256.09
2023-04-18T06:10:11.048Z,100260.47
2023-04-18T06:13:13.199Z,100264.00
2023-04-18T06:16:16.077Z,100262.25
2023-04-18T06:19:18.308Z,100265.75
2023-04-18T06:22:20.909Z,100269.22
2023-04-18T06:25:23.099Z,100271.88
2023-04-18T06:28:26.986Z,100266.59
2023-04-18T06:31:29.145Z,100270.13
2023-04-18T06:34:31.676Z,100268.38
2023-04-18T06:37:33.846Z,100270.09
2023-04-18T06:40:36.189Z,100272.72
2023-04-18T06:43:38.487Z,100265.69
2023-04-18T06:46:41.711Z,100269.16
2023-04-18T06:49:43.836Z,100273.53
2023-04-18T06:52:46.407Z,100271.75
2023-04-18T06:55:48.997Z,100267.31
2023-04-18T06:58:52.833Z,100279.50
2023-04-18T07:01:54.996Z,100282.00
2023-04-18T07:04:57.720Z,100280.16
2023-04-18T07:08:00.126Z,100278.41
2023-04-18T07:11:02.548Z,100289.78
2023-04-18T07:14:04.694Z,100286.25
2023-04-18T07:17:07.181Z,100289.75
2023-04-18T07:20:12.311Z,100290.69
2023-04-18T07:23:36.613Z,100289.78
2023-04-18T07:26:39.373Z,100288.97
2023-04-18T07:29:41.780Z,100292.44
2023-04-18T07:32:44.041Z,100295.94
2023-04-18T07:35:48.313Z,100303.84
2023-04-18T07:38:52.463Z,100296.75
2023-04-18T07:41:58.179Z,100301.03
2023-04-18T07:45:00.865Z,100309.84
2023-04-18T07:48:03.423Z,100304.66
2023-04-18T07:51:05.713Z,100308.06
2023-04-18T07:54:08.234Z,100309.75
2023-04-18T07:57:11.273Z,100314.19
2023-04-18T08:00:14.516Z,100309.78
2023-04-18T08:03:17.102Z,100312.34
2023-04-18T08:06:19.344Z,100313.28
2023-04-18T08:09:22.175Z,100315.91
2023-04-18T08:12:25.080Z,100322.00
2023-04-18T08:15:28.932Z,100321.00
2023-04-18T08:18:31.041Z,100312.94
2023-04-18T08:21:33.439Z,100318.87
2023-04-18T08:24:35.867Z,100321.22
2023-04-18T08:27:38.309Z,100317.00
2023-04-18T08:30:40.439Z,100323.22
2023-04-18T08:33:43.283Z,100335.72
2023-04-18T08:36:45.884Z,100334.84
2023-04-18T08:39:48.343Z,100334.09
2023-04-18T08:42:52.838Z,100322.66
2023-04-18T08:46:01.007Z,100335.13
2023-04-18T08:49:06.492Z,100331.72
2023-04-18T08:52:19.046Z,100335.28
2023-04-18T08:55:24.287Z,100336.19
2023-04-18T08:58:27.595Z,100336.16
2023-04-18T09:01:57.216Z,100336.97
2023-04-18T09:04:59.713Z,100334.22
2023-04-18T09:08:22.270Z,100334.03
2023-04-18T09:11:32.101Z,100325.75
2023-04-18T09:14:42.712Z,100324.41
2023-04-18T09:17:52.399Z,100326.50
2023-04-18T09:20:55.013Z,100316.47
2023-04-18T09:24:29.465Z,100318.63
2023-04-18T09:27:34.643Z,100323.44
2023-04-18T09:30:39.581Z,100323.34
2023-04-18T09:33:54.077Z,100324.16
2023-04-18T09:37:07.575Z,100316.47
2023-04-18T09:40:19.541Z,100323.53
2023-04-18T09:43:22.024Z,100315.72
2023-04-18T09:46:24.303Z,100315.31
2023-04-18T09:49:27.441Z,100314.19
2023-04-18T09:52:36.878Z,100307.91
2023-04-18T09:55:40.185Z,100313.47
2023-04-18T09:58:44.193Z,100318.56
2023-04-18T10:01:48.393Z,100312.28
2023-04-18T10:04:52.929Z,100314.81
2023-04-18T10:07:55.778Z,100307.69
2023-04-18T10:10:58.672Z,100314.75
2023-04-18T10:14:07.869Z,100309.97
2023-04-18T10:17:11.676Z,100313.22
2023-04-18T10:20:20.223Z,100308.44
2023-04-18T10:23:31.953Z,100305.91
2023-04-18T10:26:46.983Z,100314.75
2023-04-18T10:29:51.771Z,100307.69
2023-04-18T10:32:56.949Z,100304.34
2023-04-18T10:36:08.831Z,100312.97
2023-04-18T10:39:25.047Z,100305.47
2023-04-18T10:42:52.844Z,100307.03
2023-04-18T10:46:31.692Z,100306.88
2023-04-18T10:49:38.159Z,100299.09
2023-04-18T10:52:41.500Z,100295.63
2023-04-18T10:55:53.480Z,100295.31
2023-04-18T10:59:01.269Z,100293.34
2023-04-18T11:02:18.837Z,100295.81
2023-04-18T11:05:29.057Z,100295.09
2023-04-18T11:08:31.643Z,100287.53
2023-04-18T11:11:33.757Z,100287.03
2023-04-18T11:14:41.122Z,100288.09
2023-04-18T11:17:44.464Z,100288.44
2023-04-18T11:20:49.715Z,100296.53
2023-04-18T11:23:54.571Z,100296.34
2023-04-18T11:26:57.933Z,100289.00
2023-04-18T11:33:41.239Z,100298.06
2023-04-18T11:36:52.865Z,100297.69
2023-04-18T11:39:55.658Z,100301.25
2023-04-18T11:43:01.567Z,100292.38
2023-04-18T11:46:04.100Z,100291.03
2023-04-18T11:49:06.329Z,100299.00
2023-04-18T11:52:13.379Z,100299.53
2023-04-18T11:55:18.483Z,100287.28
2023-04-18T11:58:31.687Z,100288.31
2023-04-18T12:01:34.448Z,100294.03
2023-04-18T12:04:58.286Z,100287.87
2023-04-18T12:08:11.815Z,100287.63
2023-04-18T12:11:21.527Z,100281.13
2023-04-18T12:14:23.695Z,100287.69
2023-04-18T12:17:27.370Z,100293.88
2023-04-18T12:20:37.750Z,100298.19
2023-04-18T12:23:42.414Z,100287.25
2023-04-18T12:26:48.688Z,100291.69
2023-04-18T12:29:51.122Z,100281.88
2023-04-18T12:32:55.753Z,100280.44
2023-04-18T12:35:58.196Z,100285.22
2023-04-18T12:39:00.494Z,100276.47
2023-04-18T12:42:02.918Z,100284.28
2023-04-18T12:45:07.715Z,100291.91
2023-04-18T12:48:10.331Z,100280.44
2023-04-18T12:51:12.566Z,100286.34
2023-04-18T12:54:15.073Z,100284.81
2023-04-18T12:57:17.573Z,100280.00
2023-04-18T13:00:23.185Z,100287.34
2023-04-18T13:03:26.420Z,100280.38
2023-04-18T13:06:28.940Z,100282.56
2023-04-18T13:09:31.475Z,100279.97
2023-04-18T13:12:34.259Z,100276.47
2023-04-18T13:15:36.571Z,100281.94
2023-04-18T13:18:38.959Z,100282.16
2023-04-18T13:21:42.397Z,100280.03
2023-04-18T13:24:44.845Z,100279.72
2023-04-18T13:27:47.138Z,100279.62
2023-04-18T13:30:49.497Z,100284.28
2023-04-18T13:33:51.717Z,100281.16
2023-04-18T13:36:54.119Z,100276.66
2023-04-18T13:39:57.371Z,100279.88
2023-04-18T13:42:59.729Z,100283.38
2023-04-18T13:46:01.833Z,100280.66
2023-04-18T13:49:04.291Z,100274.56
2023-04-18T13:52:06.438Z,100280.56
2023-04-18T13:55:10.463Z,100276.03
2023-04-18T13:58:12.661Z,100281.19
2023-04-18T14:01:16.590Z,100285.13
2023-04-18T14:04:21.660Z,100280.56
2023-04-18T14:07:23.937Z,100273.91
2023-04-18T14:10:26.349Z,100280.22
2023-04-18T14:13:28.518Z,100273.88
2023-04-18T14:16:33.279Z,100270.16
2023-04-18T14:19:35.379Z,100268.50
2023-04-18T14:22:37.791Z,100269.31
2023-04-18T14:25:39.870Z,100267.16
2023-04-18T14:28:42.344Z,100262.00
2023-04-18T14:31:44.735Z,100261.56
2023-04-18T14:34:47.352Z,100267.37
2023-04-18T14:37:49.428Z,100267.75
2023-04-18T14:40:51.759Z,100263.53
2023-04-18T14:43:53.918Z,100257.19
2023-04-18T14:46:56.438Z,100260.75
2023-04-18T14:49:58.615Z,100263.53
2023-04-18T14:53:01.193Z,100263.72
2023-04-18T14:56:03.436Z,100265.59
2023-04-18T14:59:06.047Z,100261.75
2023-04-18T15:02:08.226Z,100260.66
2023-04-18T15:05:11.403Z,100269.62
2023-04-18T15:08:14.563Z,100264.94
2023-04-18T15:11:16.921Z,100270.22
2023-04-18T15:14:19.076Z,100264.63
2023-04-18T15:17:21.608Z,100263.91
2023-04-18T15:20:24.215Z,100264.28
